createdAt,value
2022-10-27T00:00:37.711Z,3.57
2022-10-27T00:03:15.458Z,4.67
2022-10-27T00:05:45.194Z,4.67
2022-10-27T00:08:23.750Z,4.93
2022-10-27T00:10:59.291Z,3.27
2022-10-27T00:13:35.682Z,4.83
2022-10-27T00:16:06.556Z,4.43
2022-10-27T00:18:41.869Z,6.10
2022-10-27T00:21:12.729Z,3.83
2022-10-27T00:23:49.763Z,5.87
2022-10-27T00:26:19.941Z,7.17
2022-10-27T00:28:54.903Z,7.70
2022-10-27T00:31:23.973Z,4.23
2022-10-27T00:33:59.888Z,6.00
2022-10-27T00:36:35.214Z,5.37
2022-10-27T00:39:11.780Z,7.33
2022-10-27T00:41:41.714Z,5.03
2022-10-27T00:44:39.886Z,6.23
2022-10-27T00:47:14.455Z,5.30
2022-10-27T00:49:53.721Z,5.10
2022-10-27T00:52:27.509Z,7.30
2022-10-27T00:55:06.742Z,4.30
2022-10-27T00:57:36.928Z,3.50
2022-10-27T01:00:14.089Z,4.07
2022-10-27T01:02:42.840Z,3.67
2022-10-27T01:05:22.840Z,6.47
2022-10-27T01:07:53.214Z,3.03
2022-10-27T01:10:31.032Z,3.77
2022-10-27T01:13:00.725Z,5.53
2022-10-27T01:15:44.936Z,5.70
2022-10-27T01:18:30.047Z,4.57
2022-10-27T01:21:33.732Z,4.87
2022-10-27T01:24:38.817Z,5.53
2022-10-27T01:27:17.040Z,4.90
2022-10-27T01:30:20.975Z,5.50
2022-10-27T01:32:59.889Z,6.83
2022-10-27T01:35:47.982Z,6.60
2022-10-27T01:38:30.141Z,5.43
2022-10-27T01:41:10.010Z,5.83
2022-10-27T01:43:38.522Z,5.97
2022-10-27T01:46:16.845Z,3.47
2022-10-27T01:48:47.725Z,5.87
2022-10-27T01:51:22.818Z,5.50
2022-10-27T01:53:53.491Z,3.80
2022-10-27T01:56:54.823Z,4.93
2022-10-27T01:59:40.902Z,4.90
2022-10-27T02:02:25.829Z,6.20
2022-10-27T02:05:05.509Z,7.00
2022-10-27T02:07:49.065Z,5.67
2022-10-27T02:10:21.289Z,7.57
2022-10-27T02:12:57.893Z,3.63
2022-10-27T02:15:32.709Z,5.60
2022-10-27T02:18:11.956Z,4.33
2022-10-27T02:20:44.707Z,3.83
2022-10-27T02:23:24.009Z,3.43
2022-10-27T02:25:57.941Z,5.77
2022-10-27T02:28:37.860Z,4.67
2022-10-27T02:31:08.236Z,6.10
2022-10-27T02:33:44.029Z,4.33
2022-10-27T02:36:20.681Z,5.00
2022-10-27T02:39:02.841Z,5.17
2022-10-27T02:41:31.268Z,4.13
2022-10-27T02:44:06.034Z,6.13
2022-10-27T02:46:34.401Z,4.43
2022-10-27T02:49:09.857Z,4.47
2022-10-27T02:51:39.691Z,3.67
2022-10-27T02:54:14.848Z,4.60
2022-10-27T02:56:43.303Z,2.73
2022-10-27T02:59:18.067Z,7.17
2022-10-27T03:01:47.083Z,3.57
2022-10-27T03:04:21.856Z,3.20
2022-10-27T03:06:51.786Z,3.53
2022-10-27T03:09:26.903Z,6.10
2022-10-27T03:11:55.358Z,3.97
2022-10-27T03:14:29.942Z,4.40
2022-10-27T03:16:58.713Z,4.50
2022-10-27T03:19:33.925Z,4.17
2022-10-27T03:22:03.914Z,3.47
2022-10-27T03:24:38.944Z,5.50
2022-10-27T03:27:07.462Z,4.50
2022-10-27T03:29:41.836Z,5.70
2022-10-27T03:32:10.282Z,3.67
2022-10-27T03:34:44.892Z,5.47
2022-10-27T03:37:21.406Z,5.77
2022-10-27T03:39:55.964Z,5.57
2022-10-27T03:42:24.612Z,2.90
2022-10-27T03:45:00.057Z,3.73
2022-10-27T03:47:28.508Z,5.47
2022-10-27T03:50:04.074Z,2.63
2022-10-27T03:52:34.087Z,4.97
2022-10-27T03:55:08.877Z,2.77
2022-10-27T03:57:37.677Z,4.07
2022-10-27T04:00:13.085Z,5.93
2022-10-27T04:02:41.462Z,5.20
2022-10-27T04:05:16.926Z,4.33
2022-10-27T04:07:48.447Z,3.80
2022-10-27T04:10:24.013Z,3.57
2022-10-27T04:12:54.260Z,3.67
2022-10-27T04:15:30.017Z,6.70
2022-10-27T04:18:00.673Z,3.20
2022-10-27T04:20:36.128Z,4.87
2022-10-27T04:23:06.078Z,4.03
2022-10-27T04:25:40.982Z,2.63
2022-10-27T04:28:10.212Z,3.63
2022-10-27T04:30:44.984Z,3.23
2022-10-27T04:33:13.826Z,3.63
2022-10-27T04:35:48.965Z,4.07
2022-10-27T04:38:25.673Z,1.97
2022-10-27T04:41:00.980Z,3.43
2022-10-27T04:43:29.832Z,4.13
2022-10-27T04:46:05.114Z,3.50
2022-10-27T04:48:33.650Z,4.70
2022-10-27T04:51:09.033Z,5.60
2022-10-27T04:53:38.860Z,4.13
2022-10-27T04:56:15.003Z,3.00
2022-10-27T04:58:43.469Z,4.20
2022-10-27T05:01:20.056Z,4.33
2022-10-27T05:03:49.655Z,3.47
2022-10-27T05:06:25.137Z,4.23
2022-10-27T05:11:34.976Z,2.53
2022-10-27T05:14:03.707Z,3.13
2022-10-27T05:16:39.167Z,2.20
2022-10-27T05:19:07.714Z,2.60
2022-10-27T05:21:43.004Z,2.47
2022-10-27T05:24:20.062Z,1.63
2022-10-27T05:26:48.703Z,2.43
2022-10-27T05:29:24.162Z,4.53
2022-10-27T05:31:52.892Z,4.17
2022-10-27T05:34:28.162Z,1.83
2022-10-27T05:37:03.437Z,2.20
2022-10-27T05:39:40.147Z,3.20
2022-10-27T05:42:09.091Z,3.53
2022-10-27T05:44:44.098Z,3.17
2022-10-27T05:47:12.557Z,2.47
2022-10-27T05:49:48.015Z,3.43
2022-10-27T05:52:16.709Z,1.50
2022-10-27T05:54:53.107Z,2.80
2022-10-27T05:57:21.560Z,2.87
2022-10-27T05:59:56.168Z,4.47
2022-10-27T06:02:24.789Z,2.90
2022-10-27T06:05:00.234Z,3.37
2022-10-27T06:07:28.679Z,3.63
2022-10-27T06:10:05.036Z,3.77
2022-10-27T06:12:33.415Z,2.30
2022-10-27T06:15:08.174Z,2.47
2022-10-27T06:17:36.545Z,4.10
2022-10-27T06:20:12.280Z,3.93
2022-10-27T06:22:40.980Z,4.53
2022-10-27T06:25:18.192Z,2.90
2022-10-27T06:27:46.726Z,2.90
2022-10-27T06:30:22.083Z,5.50
2022-10-27T06:32:50.840Z,2.80
2022-10-27T06:35:26.252Z,2.93
2022-10-27T06:38:01.446Z,4.50
2022-10-27T06:40:38.109Z,2.40
2022-10-27T06:43:07.966Z,3.77
2022-10-27T06:45:44.083Z,6.27
2022-10-27T06:48:12.690Z,1.70
2022-10-27T06:50:48.227Z,3.20
2022-10-27T06:53:16.804Z,1.70
2022-10-27T06:55:53.073Z,2.57
2022-10-27T06:58:21.595Z,4.63
2022-10-27T07:00:57.340Z,2.43
2022-10-27T07:03:25.891Z,2.33
2022-10-27T07:06:01.293Z,2.73
2022-10-27T07:08:29.700Z,2.60
2022-10-27T07:11:06.259Z,2.60
2022-10-27T07:13:35.118Z,1.97
2022-10-27T07:16:10.073Z,5.97
2022-10-27T07:18:38.926Z,1.60
2022-10-27T07:21:14.152Z,2.50
2022-10-27T07:23:42.581Z,2.70
2022-10-27T07:26:19.091Z,2.50
2022-10-27T07:28:47.384Z,1.77
2022-10-27T07:31:22.337Z,4.13
2022-10-27T07:33:50.732Z,3.10
2022-10-27T07:36:32.155Z,1.93
2022-10-27T07:39:00.632Z,3.63
2022-10-27T07:41:37.272Z,2.10
2022-10-27T07:44:06.434Z,3.87
2022-10-27T07:46:41.177Z,3.50
2022-10-27T07:49:09.738Z,1.93
2022-10-27T07:51:45.483Z,3.50
2022-10-27T07:54:14.115Z,3.83
2022-10-27T07:56:51.163Z,2.90
2022-10-27T07:59:19.711Z,4.80
2022-10-27T08:01:55.235Z,3.53
2022-10-27T08:04:23.860Z,3.40
2022-10-27T08:07:03.381Z,2.67
2022-10-27T08:09:31.840Z,5.10
2022-10-27T08:12:08.320Z,3.73
2022-10-27T08:14:36.869Z,3.10
2022-10-27T08:17:12.179Z,2.53
2022-10-27T08:19:40.752Z,6.10
2022-10-27T08:22:16.139Z,2.63
2022-10-27T08:24:45.502Z,3.77
2022-10-27T08:27:22.438Z,4.33
2022-10-27T08:29:50.987Z,3.93
2022-10-27T08:32:26.258Z,2.63
2022-10-27T08:34:54.748Z,3.67
2022-10-27T08:37:36.175Z,4.97
2022-10-27T08:40:05.203Z,4.63
2022-10-27T08:42:52.577Z,4.93
2022-10-27T08:45:26.313Z,3.97
2022-10-27T08:48:03.231Z,4.03
2022-10-27T08:50:40.655Z,2.77
2022-10-27T08:53:19.211Z,2.70
2022-10-27T08:55:53.415Z,3.63
2022-10-27T09:01:29.424Z,6.27
2022-10-27T09:04:18.417Z,6.43
2022-10-27T09:06:57.747Z,2.40
2022-10-27T09:09:40.296Z,3.70
2022-10-27T09:12:19.794Z,5.63
2022-10-27T09:15:37.207Z,4.27
2022-10-27T09:18:10.575Z,3.90
2022-10-27T09:20:54.192Z,4.30
2022-10-27T09:23:30.061Z,6.03
2022-10-27T09:26:06.215Z,4.07
2022-10-27T09:28:39.329Z,3.57
2022-10-27T09:31:21.247Z,3.17
2022-10-27T09:33:56.528Z,5.90
2022-10-27T09:36:32.402Z,4.57
2022-10-27T09:39:00.839Z,4.23
2022-10-27T09:41:36.367Z,3.90
2022-10-27T09:44:09.699Z,3.53
2022-10-27T09:46:46.211Z,4.10
2022-10-27T09:49:15.490Z,3.73
2022-10-27T09:51:54.441Z,3.77
2022-10-27T09:54:34.179Z,4.43
2022-10-27T09:57:19.306Z,3.53
2022-10-27T09:59:54.284Z,9.03
2022-10-27T10:02:36.555Z,5.17
2022-10-27T10:05:25.294Z,4.37
2022-10-27T10:07:55.384Z,5.47
2022-10-27T10:10:32.589Z,6.60
2022-10-27T10:13:15.117Z,5.23
2022-10-27T10:15:51.309Z,3.70
2022-10-27T10:18:35.343Z,4.30
2022-10-27T10:21:12.478Z,4.00
2022-10-27T10:23:56.625Z,3.50
2022-10-27T10:26:37.297Z,6.47
2022-10-27T10:29:11.619Z,4.97
2022-10-27T10:31:48.493Z,5.10
2022-10-27T10:34:31.944Z,3.40
2022-10-27T10:37:13.319Z,7.63
2022-10-27T10:39:49.123Z,5.20
2022-10-27T10:42:31.689Z,4.17
2022-10-27T10:45:19.349Z,5.87
2022-10-27T10:47:56.359Z,5.33
2022-10-27T10:50:26.594Z,2.53
2022-10-27T10:53:04.437Z,6.90
2022-10-27T10:55:37.794Z,7.77
2022-10-27T10:58:13.416Z,5.47
2022-10-27T11:00:54.762Z,4.47
2022-10-27T11:03:32.293Z,4.63
2022-10-27T11:06:04.563Z,5.03
2022-10-27T11:08:46.351Z,6.53
2022-10-27T11:11:20.469Z,7.10
2022-10-27T11:14:00.467Z,6.90
2022-10-27T11:16:30.067Z,5.00
2022-10-27T11:19:09.494Z,4.90
2022-10-27T11:21:43.233Z,5.40
2022-10-27T11:24:24.508Z,5.00
2022-10-27T11:27:00.349Z,5.60
2022-10-27T11:29:46.434Z,10.77
2022-10-27T11:32:21.235Z,8.33
2022-10-27T11:35:07.411Z,6.40
2022-10-27T11:37:49.259Z,7.37
2022-10-27T11:40:29.700Z,3.60
2022-10-27T11:43:01.949Z,6.23
2022-10-27T11:45:43.453Z,4.70
2022-10-27T11:48:16.319Z,4.27
2022-10-27T11:50:56.488Z,5.30
2022-10-27T11:53:26.695Z,5.47
2022-10-27T11:56:33.512Z,7.63
2022-10-27T11:59:15.312Z,3.00
2022-10-27T12:02:02.692Z,7.57
2022-10-27T12:04:49.238Z,5.07
2022-10-27T12:07:38.403Z,8.97
2022-10-27T12:10:20.680Z,5.30
2022-10-27T12:12:58.544Z,8.23
2022-10-27T12:15:31.030Z,5.40
2022-10-27T12:18:10.243Z,5.40
2022-10-27T12:20:45.325Z,7.87
2022-10-27T12:23:26.559Z,5.00
2022-10-27T12:26:03.257Z,8.90
2022-10-27T12:28:42.611Z,8.73
2022-10-27T12:31:17.433Z,7.10
2022-10-27T12:33:58.608Z,6.20
2022-10-27T12:36:53.481Z,8.00
2022-10-27T12:39:37.451Z,5.53
2022-10-27T12:42:12.750Z,6.30
2022-10-27T12:44:58.398Z,5.90
2022-10-27T12:47:38.392Z,5.97
2022-10-27T12:50:25.469Z,5.13
2022-10-27T12:53:00.540Z,7.27
2022-10-27T12:55:54.478Z,7.40
2022-10-27T12:58:37.703Z,4.70
2022-10-27T13:01:28.945Z,6.77
2022-10-27T13:04:42.497Z,5.60
2022-10-27T13:07:33.021Z,7.23
2022-10-27T13:10:19.514Z,6.90
2022-10-27T13:13:02.583Z,11.03
2022-10-27T13:16:01.537Z,14.57
2022-10-27T13:19:02.392Z,7.43
2022-10-27T13:21:45.590Z,10.07
2022-10-27T13:24:29.204Z,9.90
2022-10-27T13:27:10.464Z,8.67
2022-10-27T13:29:44.124Z,10.63
2022-10-27T13:32:47.395Z,9.10
2022-10-27T13:35:59.732Z,6.37
2022-10-27T13:38:34.649Z,9.53
2022-10-27T13:41:03.303Z,9.33
2022-10-27T13:44:02.481Z,6.60
2022-10-27T13:47:10.858Z,8.63
2022-10-27T13:50:08.571Z,6.43
2022-10-27T13:52:37.202Z,9.90
2022-10-27T13:55:40.496Z,12.17
2022-10-27T13:58:31.815Z,10.70
2022-10-27T14:01:30.944Z,8.57
2022-10-27T14:04:27.059Z,5.63
2022-10-27T14:09:46.099Z,8.07
2022-10-27T14:12:31.706Z,8.00
2022-10-27T14:15:07.472Z,7.17
2022-10-27T14:17:43.543Z,7.80
2022-10-27T14:20:21.063Z,8.87
2022-10-27T14:23:00.971Z,10.27
2022-10-27T14:25:31.239Z,8.83
2022-10-27T14:28:14.950Z,8.93
2022-10-27T14:30:43.848Z,4.40
2022-10-27T14:33:30.702Z,6.17
2022-10-27T14:36:31.514Z,7.00
2022-10-27T14:39:13.660Z,11.07
2022-10-27T14:41:47.160Z,8.83
2022-10-27T14:44:25.681Z,8.13
2022-10-27T14:46:57.850Z,4.90
2022-10-27T14:49:36.486Z,10.63
2022-10-27T14:52:08.907Z,6.37
2022-10-27T14:54:46.587Z,8.23
2022-10-27T14:57:31.817Z,9.13
2022-10-27T15:00:07.563Z,7.27
2022-10-27T15:02:36.545Z,6.17
2022-10-27T15:05:25.783Z,5.13
2022-10-27T15:07:56.644Z,6.37
2022-10-27T15:10:34.602Z,8.07
2022-10-27T15:13:03.851Z,6.90
2022-10-27T15:15:42.517Z,7.57
2022-10-27T15:18:22.141Z,6.33
2022-10-27T15:20:58.739Z,7.33
2022-10-27T15:23:28.125Z,7.90
2022-10-27T15:26:05.633Z,5.67
2022-10-27T15:28:37.689Z,5.03
2022-10-27T15:31:14.580Z,5.73
2022-10-27T15:33:44.509Z,5.00
2022-10-27T15:36:28.719Z,6.60
2022-10-27T15:39:12.011Z,6.70
2022-10-27T15:41:55.761Z,7.77
2022-10-27T15:44:27.415Z,6.77
2022-10-27T15:47:02.630Z,6.83
2022-10-27T15:49:33.433Z,5.30
2022-10-27T15:52:10.793Z,7.57
2022-10-27T15:54:43.258Z,13.10
2022-10-27T15:57:42.732Z,6.87
2022-10-27T16:00:22.966Z,9.23
2022-10-27T16:03:02.654Z,8.13
2022-10-27T16:05:44.406Z,8.63
2022-10-27T16:08:47.641Z,7.00
2022-10-27T16:11:16.543Z,7.73
2022-10-27T16:13:56.040Z,9.10
2022-10-27T16:16:25.190Z,11.23
2022-10-27T16:19:00.986Z,7.47
2022-10-27T16:21:31.164Z,8.37
2022-10-27T16:24:16.068Z,9.43
2022-10-27T16:26:45.636Z,10.57
2022-10-27T16:29:24.661Z,8.27
2022-10-27T16:31:53.116Z,13.03
2022-10-27T16:34:32.133Z,8.00
2022-10-27T16:37:08.302Z,11.30
2022-10-27T16:39:49.623Z,12.87
2022-10-27T16:42:19.335Z,10.47
2022-10-27T16:44:55.713Z,9.33
2022-10-27T16:47:24.281Z,9.07
2022-10-27T16:50:00.693Z,9.40
2022-10-27T16:52:29.285Z,8.13
2022-10-27T16:55:04.837Z,11.73
2022-10-27T16:57:33.583Z,11.83
2022-10-27T17:00:10.726Z,8.33
2022-10-27T17:02:40.700Z,9.27
2022-10-27T17:05:16.643Z,8.03
2022-10-27T17:07:46.476Z,6.13
2022-10-27T17:10:24.799Z,7.07
2022-10-27T17:12:53.643Z,12.13
2022-10-27T17:15:30.849Z,7.67
2022-10-27T17:18:01.017Z,8.60
2022-10-27T17:20:35.663Z,8.50
2022-10-27T17:23:05.192Z,6.97
2022-10-27T17:25:40.918Z,8.50
2022-10-27T17:28:09.483Z,6.93
2022-10-27T17:30:45.706Z,6.23
2022-10-27T17:33:14.055Z,10.73
2022-10-27T17:35:48.839Z,9.80
2022-10-27T17:38:24.231Z,12.07
2022-10-27T17:41:00.807Z,6.13
2022-10-27T17:43:36.017Z,7.87
2022-10-27T17:46:15.713Z,9.47
2022-10-27T17:48:45.928Z,10.47
2022-10-27T17:51:22.866Z,8.67
2022-10-27T17:53:51.938Z,10.13
2022-10-27T17:56:28.708Z,7.90
2022-10-27T17:58:57.361Z,8.73
2022-10-27T18:01:35.925Z,8.57
2022-10-27T18:04:06.851Z,10.70
2022-10-27T18:06:42.690Z,11.77
2022-10-27T18:09:13.611Z,8.90
2022-10-27T18:11:48.798Z,8.40
2022-10-27T18:14:18.902Z,7.37
2022-10-27T18:16:55.807Z,7.63
2022-10-27T18:19:30.799Z,8.97
2022-10-27T18:21:59.496Z,6.10
2022-10-27T18:24:34.938Z,7.97
2022-10-27T18:27:03.517Z,12.53
2022-10-27T18:29:38.903Z,7.40
2022-10-27T18:32:09.125Z,9.53
2022-10-27T18:34:43.947Z,8.47
2022-10-27T18:37:31.780Z,8.70
2022-10-27T18:40:06.940Z,9.47
2022-10-27T18:42:35.501Z,9.03
2022-10-27T18:45:11.124Z,9.97
2022-10-27T18:47:41.658Z,7.37
2022-10-27T18:50:16.928Z,8.13
2022-10-27T18:52:45.299Z,10.20
2022-10-27T18:57:54.686Z,14.43
2022-10-27T19:00:29.830Z,9.07
2022-10-27T19:02:59.901Z,6.43
2022-10-27T19:05:34.878Z,7.00
2022-10-27T19:08:03.351Z,8.60
2022-10-27T19:10:39.911Z,8.33
2022-10-27T19:13:08.340Z,8.13
2022-10-27T19:15:44.022Z,9.10
2022-10-27T19:18:13.743Z,6.20
2022-10-27T19:20:50.819Z,6.90
2022-10-27T19:23:19.216Z,11.10
2022-10-27T19:26:09.545Z,7.37
2022-10-27T19:28:40.177Z,8.10
2022-10-27T19:31:17.007Z,6.30
2022-10-27T19:33:47.549Z,8.00
2022-10-27T19:36:25.784Z,7.70
2022-10-27T19:39:03.071Z,8.30
2022-10-27T19:41:39.881Z,11.83
2022-10-27T19:44:08.312Z,7.33
2022-10-27T19:46:44.118Z,6.57
2022-10-27T19:49:17.538Z,9.00
2022-10-27T19:51:52.861Z,10.10
2022-10-27T19:54:22.338Z,6.73
2022-10-27T19:56:56.791Z,7.13
2022-10-27T19:59:25.565Z,5.40
2022-10-27T20:02:03.106Z,8.03
2022-10-27T20:04:37.433Z,9.10
2022-10-27T20:07:13.023Z,6.67
2022-10-27T20:09:41.527Z,7.67
2022-10-27T20:12:16.822Z,9.67
2022-10-27T20:14:45.388Z,8.03
2022-10-27T20:17:20.866Z,7.50
2022-10-27T20:19:50.933Z,7.77
2022-10-27T20:22:25.984Z,9.87
2022-10-27T20:24:55.268Z,10.13
2022-10-27T20:27:30.908Z,8.30
2022-10-27T20:29:59.507Z,12.23
2022-10-27T20:32:34.908Z,7.87
2022-10-27T20:35:08.343Z,8.70
2022-10-27T20:37:46.881Z,9.43
2022-10-27T20:40:22.361Z,10.17
2022-10-27T20:42:56.856Z,10.27
2022-10-27T20:45:25.719Z,9.33
2022-10-27T20:48:01.023Z,10.30
2022-10-27T20:50:31.121Z,6.97
2022-10-27T20:53:06.041Z,9.17
2022-10-27T20:55:34.766Z,12.83
2022-10-27T20:58:10.049Z,7.83
2022-10-27T21:00:38.491Z,10.60
2022-10-27T21:03:14.054Z,11.53
2022-10-27T21:05:44.285Z,7.93
2022-10-27T21:08:21.982Z,11.17
2022-10-27T21:11:01.867Z,10.93
2022-10-27T21:13:30.462Z,8.13
2022-10-27T21:16:05.941Z,10.10
2022-10-27T21:18:34.561Z,10.93
2022-10-27T21:21:19.928Z,9.93
2022-10-27T21:23:49.097Z,9.30
2022-10-27T21:26:24.942Z,7.97
2022-10-27T21:28:54.290Z,5.60
2022-10-27T21:31:31.100Z,10.27
2022-10-27T21:34:02.963Z,8.93
2022-10-27T21:36:38.835Z,8.23
2022-10-27T21:39:14.901Z,12.20
2022-10-27T21:41:49.948Z,8.53
2022-10-27T21:44:18.493Z,5.73
2022-10-27T21:46:54.099Z,8.37
2022-10-27T21:49:22.579Z,7.57
2022-10-27T21:51:59.108Z,9.90
2022-10-27T21:54:27.793Z,9.90
2022-10-27T21:57:03.070Z,8.17
2022-10-27T21:59:31.252Z,10.03
2022-10-27T22:02:06.195Z,6.80
2022-10-27T22:04:34.673Z,8.13
2022-10-27T22:07:11.114Z,7.50
2022-10-27T22:09:39.900Z,8.10
2022-10-27T22:12:14.985Z,7.40
2022-10-27T22:14:43.147Z,7.93
2022-10-27T22:17:17.968Z,6.87
2022-10-27T22:19:46.430Z,8.80
2022-10-27T22:22:23.114Z,9.00
2022-10-27T22:24:51.632Z,4.63
2022-10-27T22:27:26.996Z,8.57
2022-10-27T22:29:55.351Z,10.73
2022-10-27T22:32:29.976Z,10.40
2022-10-27T22:35:00.447Z,7.00
2022-10-27T22:37:43.013Z,7.47
2022-10-27T22:40:18.278Z,5.33
2022-10-27T22:42:53.013Z,8.37
2022-10-27T22:45:21.544Z,7.93
2022-10-27T22:47:56.979Z,12.37
2022-10-27T22:50:25.572Z,8.63
2022-10-27T22:53:02.013Z,7.60
2022-10-27T22:55:30.409Z,12.33
2022-10-27T22:58:04.921Z,9.53
2022-10-27T23:00:33.502Z,9.67
2022-10-27T23:03:08.002Z,9.93
2022-10-27T23:05:36.500Z,8.70
2022-10-27T23:08:13.058Z,8.00
2022-10-27T23:10:41.621Z,7.30
2022-10-27T23:13:17.168Z,8.23
2022-10-27T23:15:53.861Z,6.53
2022-10-27T23:18:28.986Z,9.00
2022-10-27T23:20:58.752Z,11.00
2022-10-27T23:23:37.175Z,8.13
2022-10-27T23:26:06.089Z,8.07
2022-10-27T23:28:41.208Z,6.43
2022-10-27T23:31:09.616Z,12.53
2022-10-27T23:33:59.347Z,8.63
2022-10-27T23:36:35.734Z,5.27
2022-10-27T23:39:19.269Z,7.03
2022-10-27T23:41:47.727Z,8.33
2022-10-27T23:44:23.107Z,8.23
2022-10-27T23:46:51.653Z,8.40
2022-10-27T23:49:27.091Z,8.87
2022-10-27T23:51:55.523Z,9.07
2022-10-27T23:54:32.124Z,5.77
2022-10-27T23:57:00.807Z,8.33
2022-10-27T23:59:36.130Z,9.67
